Aérodrome :
LOGIN :

S'inscrire | Disclaimer

   EN    FR    IT 

 










Légende :    VFR   VFR Marginal   IFR   IFR Intensif   IFR Très Intensif
Visi : 
Plafond : 
>= 8 km
>= 3000ft
5 à 8 km
1000 à 3000 ft
1500m à 5 km
500 à 1000 ft
800 à 1500m
200 à 500 ft
< 800m
< 200 ft
Symboles :   Orages  Brouillard  Fortes neiges  Fortes précipitations  Vent > 20 kt
SIGMETs :   Divers  Orages  Givrage  Turbulence  Onde Orograph.  Cendres Volcan.






- Altitude de l'aérodrome : 458 ft


LFSI - St-Dizier

DERNIER METAR :
  • 232200Z AUTO 22007KT 9999 -RA FEW018/// BKN045/// BKN064/// ///CB 17/15 Q1004

METARs EXPIRÉS :
  • 232130Z AUTO VRB03KT 9999 ///CB 17/15 Q1004
  • 232100Z AUTO VRB03KT 9999 ///TCU 17/14 Q1004
  • 232030Z AUTO 17004KT 140V220 9999 ///TCU 18/14 Q1004
  • 232000Z AUTO 19010KT 160V220 9999 3000 +RA FEW013/// BKN060/// OVC090/// ///CB 20/12 Q1005
  • 231930Z AUTO 16006KT CAVOK 21/10 Q1004

TAF TAF LFSI
Valide du 23 à 21h jusqu'au 24 à 21h UTC


232000Z 2321/2421 23012KT CAVOK
TEMPO 2323/2402 SCT010
TEMPO 2418/2421 4500 -SHRA SCT040TCU



MET'MAP, la Météo Aéronautique d'un coup d'oeil ! - Copyright ORBIFLY Décembre 2007 - Disclaimer

ORBIFLY MET'MAP TEAM :

Programmation & Développement : Alexandra Zaïnal
Sur une idée originale de : Baudouin d'Aumeries
Assistance à la programmation : Marc-Olivier Méhu
Soutien technique & logistique : Manuel Goepfert

Contact : metmap@orbifly.com




SOURCES & CREDITS :

   NOAA